createdAt,value
2022-12-20T00:01:02.509Z,11.19
2022-12-20T00:11:07.646Z,11.36
2022-12-20T00:21:12.670Z,11.41
2022-12-20T00:31:18.772Z,11.46
2022-12-20T00:41:23.415Z,11.40
2022-12-20T00:51:29.244Z,11.26
2022-12-20T01:01:34.819Z,11.17
2022-12-20T01:11:39.735Z,11.37
2022-12-20T01:21:44.983Z,11.36
2022-12-20T01:31:49.946Z,11.73
2022-12-20T01:41:52.979Z,11.63
2022-12-20T01:51:59.771Z,11.53
2022-12-20T02:02:06.069Z,11.54
2022-12-20T02:12:15.791Z,11.47
2022-12-20T02:22:29.912Z,11.39
2022-12-20T02:32:38.324Z,11.62
2022-12-20T02:42:41.180Z,11.78
2022-12-20T02:52:45.696Z,11.60
2022-12-20T03:03:06.630Z,11.67
2022-12-20T03:13:10.907Z,11.81
2022-12-20T03:23:13.819Z,11.59
2022-12-20T03:33:17.928Z,11.38
2022-12-20T03:43:20.672Z,11.24
2022-12-20T03:53:24.890Z,11.11
2022-12-20T04:03:27.771Z,10.89
2022-12-20T04:13:31.833Z,10.85
2022-12-20T04:23:35.380Z,10.87
2022-12-20T04:33:39.832Z,10.62
2022-12-20T04:43:42.554Z,10.74
2022-12-20T04:53:50.192Z,10.86
2022-12-20T05:03:53.429Z,11.12
2022-12-20T05:13:57.535Z,10.93
2022-12-20T05:24:17.824Z,10.97
2022-12-20T05:34:22.061Z,10.94
2022-12-20T05:44:24.830Z,11.00
2022-12-20T05:54:30.079Z,11.11
2022-12-20T06:04:32.897Z,11.27
2022-12-20T06:14:37.014Z,11.31
2022-12-20T06:24:47.631Z,11.51
2022-12-20T06:34:53.268Z,11.34
2022-12-20T06:44:56.024Z,11.56
2022-12-20T06:55:00.107Z,11.66
2022-12-20T07:05:02.907Z,11.46
2022-12-20T07:15:08.378Z,11.44
2022-12-20T07:25:11.589Z,11.47
2022-12-20T07:35:16.772Z,11.29
2022-12-20T07:45:19.774Z,11.08
2022-12-20T07:55:24.148Z,10.80
2022-12-20T08:05:28.313Z,10.86
2022-12-20T08:15:32.525Z,10.98
2022-12-20T08:25:41.255Z,10.89
2022-12-20T08:35:46.307Z,11.09
2022-12-20T08:45:53.627Z,11.20
2022-12-20T08:56:04.971Z,11.36
2022-12-20T09:06:09.848Z,11.46
2022-12-20T09:16:15.459Z,11.55
2022-12-20T09:26:18.819Z,11.78
2022-12-20T09:36:25.063Z,11.89
2022-12-20T09:46:28.743Z,12.19
2022-12-20T09:56:37.119Z,12.35
2022-12-20T10:06:50.645Z,12.22
2022-12-20T10:16:59.590Z,12.46
2022-12-20T10:27:12.474Z,12.33
2022-12-20T10:37:16.986Z,12.34
2022-12-20T10:47:26.958Z,12.19
2022-12-20T10:57:31.779Z,11.75
2022-12-20T11:07:36.057Z,11.43
2022-12-20T11:17:46.478Z,11.05
2022-12-20T11:28:00.612Z,10.94
2022-12-20T11:38:12.994Z,11.05
2022-12-20T11:48:40.984Z,10.99
2022-12-20T11:58:54.429Z,10.88
2022-12-20T12:09:09.617Z,10.96
2022-12-20T12:19:15.663Z,10.88
2022-12-20T12:29:20.769Z,10.94
2022-12-20T12:39:51.624Z,10.96
2022-12-20T12:49:55.583Z,10.95
2022-12-20T12:59:59.675Z,10.95
2022-12-20T13:10:29.453Z,10.89
2022-12-20T13:20:35.836Z,10.83
2022-12-20T13:30:39.600Z,10.95
2022-12-20T13:40:46.030Z,10.81
2022-12-20T13:50:50.928Z,10.89
2022-12-20T14:01:04.669Z,10.83
2022-12-20T14:11:12.274Z,10.86
2022-12-20T14:21:17.036Z,10.96
2022-12-20T14:31:28.695Z,11.08
2022-12-20T14:41:36.581Z,10.99
2022-12-20T14:51:40.558Z,11.16
2022-12-20T15:01:45.035Z,10.99
2022-12-20T15:11:49.093Z,11.02
2022-12-20T15:21:53.239Z,11.09
2022-12-20T15:32:06.156Z,11.04
2022-12-20T15:42:16.478Z,10.98
2022-12-20T15:52:20.843Z,11.04
2022-12-20T16:02:27.195Z,10.97
2022-12-20T16:12:34.084Z,11.18
2022-12-20T16:22:38.298Z,11.16
2022-12-20T16:32:41.152Z,11.16
2022-12-20T16:42:45.306Z,11.24
2022-12-20T16:52:50.224Z,11.17
2022-12-20T17:02:54.636Z,11.32
2022-12-20T17:12:58.026Z,11.36
2022-12-20T17:33:22.185Z,11.32
2022-12-20T17:43:26.354Z,11.28
2022-12-20T17:53:29.107Z,11.22
2022-12-20T18:04:05.001Z,11.27
2022-12-20T18:13:58.354Z,11.08
2022-12-20T18:24:02.804Z,11.11
2022-12-20T18:34:06.364Z,11.14
2022-12-20T18:44:11.569Z,11.02
2022-12-20T18:54:14.863Z,11.11
2022-12-20T19:04:24.230Z,11.11
2022-12-20T19:14:27.865Z,11.09
2022-12-20T19:24:31.954Z,11.05
2022-12-20T19:34:34.727Z,11.00
2022-12-20T19:44:38.820Z,11.07
2022-12-20T19:54:43.056Z,10.90
2022-12-20T20:04:47.188Z,10.79
2022-12-20T20:14:52.308Z,10.74
2022-12-20T20:24:56.484Z,10.68
2022-12-20T20:34:59.433Z,10.75
2022-12-20T20:45:04.033Z,10.77
2022-12-20T20:55:07.853Z,10.73
2022-12-20T21:15:35.974Z,10.64
2022-12-20T21:25:40.306Z,10.66
2022-12-20T21:35:47.082Z,10.63
2022-12-20T21:45:54.073Z,10.41
2022-12-20T21:55:57.487Z,10.24
2022-12-20T22:06:01.976Z,10.27
2022-12-20T22:16:06.741Z,10.28
2022-12-20T22:26:13.551Z,10.26
2022-12-20T22:36:17.429Z,10.37
2022-12-20T22:46:21.830Z,10.29
2022-12-20T22:56:24.868Z,10.25
2022-12-20T23:06:28.976Z,10.23
2022-12-20T23:16:32.106Z,10.10
2022-12-20T23:26:38.444Z,10.07
2022-12-20T23:36:41.369Z,10.10
2022-12-20T23:46:45.700Z,10.14
2022-12-20T23:56:48.506Z,9.96
